Preview of NWS' New Version of Forecast
This preview is not operational and should not be used for support decisions.

Terminal Aerodrome Forecast (TAF)

Issued by National Weather Service (NWS)

                            
000
FTUS42 KMFL 122113 AAA
TAFMIA
TAF AMD
KMIA 122113Z 1221/1324 20007KT P6SM VCSH SCT030 BKN050
     FM130000 VRB03KT P6SM FEW025 SCT250
     FM131700 10004KT P6SM SCT025
     FM132000 10005KT P6SM VCSH SCT025=